createdAt,value
2017-11-08T00:02:03.489Z,42.67
2017-11-08T00:04:31.987Z,43.20
2017-11-08T00:07:00.506Z,42.40
2017-11-08T00:09:28.624Z,45.67
2017-11-08T00:11:57.890Z,42.10
2017-11-08T00:14:26.387Z,42.93
2017-11-08T00:16:54.868Z,42.87
2017-11-08T00:19:23.343Z,43.77
2017-11-08T00:21:52.704Z,41.13
2017-11-08T00:24:26.886Z,41.63
2017-11-08T00:26:56.127Z,45.80
2017-11-08T00:29:24.589Z,40.97
2017-11-08T00:31:53.077Z,40.50
2017-11-08T00:34:21.546Z,39.17
2017-11-08T00:36:50.028Z,41.50
2017-11-08T00:39:18.500Z,41.70
2017-11-08T00:41:47.764Z,40.97
2017-11-08T00:44:16.228Z,43.17
2017-11-08T00:46:44.768Z,42.30
2017-11-08T00:49:13.251Z,42.10
2017-11-08T00:51:42.484Z,39.87
2017-11-08T00:54:12.807Z,42.50
2017-11-08T00:56:41.264Z,41.27
2017-11-08T00:59:09.763Z,41.27
2017-11-08T01:01:38.228Z,41.20
2017-11-08T01:04:07.487Z,42.33
2017-11-08T01:06:35.961Z,44.70
2017-11-08T01:09:03.760Z,40.80
2017-11-08T01:11:33.007Z,38.63
2017-11-08T01:14:01.500Z,40.60
2017-11-08T01:16:29.783Z,42.60
2017-11-08T01:18:58.269Z,40.83
2017-11-08T01:21:26.739Z,41.90
2017-11-08T01:23:55.218Z,40.03
2017-11-08T01:26:23.691Z,41.97
2017-11-08T01:28:52.168Z,41.60
2017-11-08T01:31:20.649Z,43.20
2017-11-08T01:33:49.139Z,42.60
2017-11-08T01:36:17.887Z,43.10
2017-11-08T01:38:47.123Z,42.27
2017-11-08T01:41:21.040Z,41.70
2017-11-08T01:43:49.504Z,41.80
2017-11-08T01:46:17.993Z,42.90
2017-11-08T01:48:46.764Z,40.77
2017-11-08T01:51:16.004Z,37.03
2017-11-08T01:53:44.476Z,38.27
2017-11-08T01:56:12.364Z,36.83
2017-11-08T01:58:40.272Z,36.63
2017-11-08T02:01:09.619Z,34.13
2017-11-08T02:03:39.100Z,33.70
2017-11-08T02:06:07.579Z,32.70
2017-11-08T02:08:35.695Z,31.27
2017-11-08T02:11:04.181Z,33.47
2017-11-08T02:13:32.695Z,32.50
2017-11-08T02:16:01.592Z,32.27
2017-11-08T02:18:30.829Z,34.10
2017-11-08T02:20:58.964Z,35.20
2017-11-08T02:23:28.180Z,32.27
2017-11-08T02:25:56.711Z,33.73
2017-11-08T02:28:24.836Z,34.60
2017-11-08T02:30:53.419Z,32.37
2017-11-08T02:33:21.943Z,34.63
2017-11-08T02:35:50.435Z,36.37
2017-11-08T02:38:18.616Z,35.00
2017-11-08T02:40:47.193Z,33.90
2017-11-08T02:43:18.480Z,34.80
2017-11-08T02:45:47.023Z,34.60
2017-11-08T02:48:15.511Z,32.77
2017-11-08T02:50:43.975Z,33.90
2017-11-08T02:53:12.463Z,32.43
2017-11-08T02:55:42.419Z,32.30
2017-11-08T02:58:11.135Z,31.63
2017-11-08T03:00:40.444Z,30.90
2017-11-08T03:03:11.552Z,30.73
2017-11-08T03:05:40.040Z,33.77
2017-11-08T03:08:08.565Z,29.83
2017-11-08T03:10:37.284Z,29.77
2017-11-08T03:13:05.982Z,27.97
2017-11-08T03:15:34.545Z,28.07
2017-11-08T03:18:03.035Z,28.83
2017-11-08T03:20:31.547Z,27.50
2017-11-08T03:23:00.014Z,25.80
2017-11-08T03:25:28.500Z,26.07
2017-11-08T03:27:57.015Z,27.43
2017-11-08T03:30:26.566Z,24.77
2017-11-08T03:32:55.032Z,22.77
2017-11-08T03:35:23.122Z,24.47
2017-11-08T03:37:51.602Z,22.10
2017-11-08T03:40:20.069Z,22.30
2017-11-08T03:42:48.536Z,20.40
2017-11-08T03:45:16.999Z,21.13
2017-11-08T03:47:46.243Z,19.10
2017-11-08T03:50:14.723Z,21.33
2017-11-08T03:52:42.852Z,19.40
2017-11-08T03:55:12.101Z,18.83
2017-11-08T03:57:40.568Z,17.97
2017-11-08T04:00:09.203Z,17.13
2017-11-08T04:02:37.659Z,17.27
2017-11-08T04:05:06.121Z,16.30
2017-11-08T04:07:34.611Z,14.93
2017-11-08T04:10:03.087Z,15.57
2017-11-08T04:12:31.551Z,14.70
2017-11-08T04:15:00.796Z,14.57
2017-11-08T04:17:29.280Z,16.10
2017-11-08T04:19:57.739Z,14.63
2017-11-08T04:22:26.235Z,14.80
2017-11-08T04:24:55.419Z,13.63
2017-11-08T04:27:24.043Z,13.43
2017-11-08T04:29:52.507Z,14.63
2017-11-08T04:32:21.176Z,13.67
2017-11-08T04:34:49.635Z,14.40
2017-11-08T04:37:18.109Z,13.13
2017-11-08T04:39:47.350Z,13.20
2017-11-08T04:42:15.939Z,14.00
2017-11-08T04:44:44.418Z,14.20
2017-11-08T04:47:12.994Z,14.07
2017-11-08T04:49:41.476Z,14.53
2017-11-08T04:52:09.939Z,15.27
2017-11-08T04:54:38.251Z,15.20
2017-11-08T04:57:06.779Z,15.83
2017-11-08T04:59:36.004Z,16.03
2017-11-08T05:02:04.488Z,17.70
2017-11-08T05:04:32.954Z,15.53
2017-11-08T05:07:02.196Z,15.63
2017-11-08T05:09:30.711Z,16.57
2017-11-08T05:11:59.203Z,17.93
2017-11-08T05:14:28.458Z,15.10
2017-11-08T05:16:56.949Z,15.00
2017-11-08T05:19:25.416Z,13.37
2017-11-08T05:21:53.919Z,13.20
2017-11-08T05:24:22.524Z,13.07
2017-11-08T05:26:50.999Z,12.17
2017-11-08T05:29:19.487Z,12.00
2017-11-08T05:31:47.956Z,11.30
2017-11-08T05:34:16.471Z,11.67
2017-11-08T05:36:45.709Z,11.57
2017-11-08T05:39:14.251Z,10.97
2017-11-08T05:41:42.850Z,11.17
2017-11-08T05:44:12.088Z,11.30
2017-11-08T05:46:40.603Z,11.03
2017-11-08T05:49:09.075Z,11.20
2017-11-08T05:51:37.545Z,11.60
2017-11-08T05:54:05.830Z,9.70
2017-11-08T05:56:34.506Z,10.23
2017-11-08T05:59:02.959Z,10.23
2017-11-08T06:01:32.408Z,10.00
2017-11-08T06:04:00.961Z,10.03
2017-11-08T06:06:29.449Z,9.63
2017-11-08T06:08:57.912Z,10.40
2017-11-08T06:11:26.394Z,8.97
2017-11-08T06:13:54.868Z,9.30
2017-11-08T06:16:24.111Z,8.17
2017-11-08T06:18:52.568Z,9.20
2017-11-08T06:21:21.039Z,8.10
2017-11-08T06:23:50.329Z,7.13
2017-11-08T06:26:18.676Z,7.30
2017-11-08T06:28:47.353Z,6.87
2017-11-08T06:31:15.812Z,6.23
2017-11-08T06:33:44.284Z,6.03
2017-11-08T06:36:12.762Z,6.10
2017-11-08T06:38:41.305Z,5.30
2017-11-08T06:41:10.520Z,6.07
2017-11-08T06:43:39.249Z,6.00
2017-11-08T06:46:07.835Z,6.67
2017-11-08T06:48:36.320Z,5.83
2017-11-08T06:51:04.800Z,6.67
2017-11-08T06:53:33.263Z,7.10
2017-11-08T06:56:07.252Z,7.70
2017-11-08T06:58:36.584Z,6.87
2017-11-08T07:01:05.080Z,7.43
2017-11-08T07:03:33.549Z,6.93
2017-11-08T07:06:02.044Z,7.20
2017-11-08T07:08:31.329Z,7.30
2017-11-08T07:10:59.819Z,5.73
2017-11-08T07:13:28.284Z,5.23
2017-11-08T07:15:56.767Z,5.90
2017-11-08T07:18:25.376Z,4.97
2017-11-08T07:20:53.839Z,4.90
2017-11-08T07:23:22.294Z,5.30
2017-11-08T07:25:51.558Z,4.93
2017-11-08T07:28:20.021Z,5.77
2017-11-08T07:30:48.492Z,4.30
2017-11-08T07:33:16.976Z,4.20
2017-11-08T07:35:45.470Z,3.63
2017-11-08T07:38:13.919Z,3.97
2017-11-08T07:40:43.151Z,4.10
2017-11-08T07:43:11.416Z,4.07
2017-11-08T07:45:39.911Z,3.30
2017-11-08T07:48:08.377Z,4.00
2017-11-08T07:50:36.855Z,3.70
2017-11-08T07:53:06.083Z,3.23
2017-11-08T07:55:40.044Z,3.50
2017-11-08T07:58:09.282Z,3.20
2017-11-08T08:00:37.411Z,3.50
2017-11-08T08:03:06.639Z,3.60
2017-11-08T08:05:35.304Z,3.50
2017-11-08T08:08:04.542Z,3.40
2017-11-08T08:10:34.910Z,2.97
2017-11-08T08:13:04.125Z,3.50
2017-11-08T08:15:32.653Z,2.87
2017-11-08T08:18:01.122Z,3.03
2017-11-08T08:20:29.834Z,4.00
2017-11-08T08:22:57.968Z,3.40
2017-11-08T08:25:27.209Z,3.80
2017-11-08T08:27:55.501Z,3.77
2017-11-08T08:30:23.973Z,3.77
2017-11-08T08:32:52.432Z,3.90
2017-11-08T08:35:20.883Z,2.80
2017-11-08T08:37:50.131Z,3.77
2017-11-08T08:40:18.579Z,3.83
2017-11-08T08:42:48.001Z,3.33
2017-11-08T08:45:16.611Z,4.30
2017-11-08T08:47:46.094Z,4.10
2017-11-08T08:50:14.573Z,4.50
2017-11-08T08:52:43.038Z,4.20
2017-11-08T08:55:12.423Z,4.30
2017-11-08T08:57:40.884Z,4.20
2017-11-08T09:00:24.123Z,4.07
2017-11-08T09:02:52.588Z,3.60
2017-11-08T09:05:21.077Z,3.60
2017-11-08T09:07:49.530Z,4.07
2017-11-08T09:10:18.048Z,3.80
2017-11-08T09:12:47.319Z,3.90
2017-11-08T09:15:15.806Z,3.70
2017-11-08T09:17:44.280Z,4.27
2017-11-08T09:20:12.203Z,4.47
2017-11-08T09:22:42.295Z,4.00
2017-11-08T09:25:10.437Z,4.17
2017-11-08T09:27:38.843Z,4.60
2017-11-08T09:30:09.132Z,4.60
2017-11-08T09:32:37.268Z,4.80
2017-11-08T09:35:09.694Z,5.00
2017-11-08T09:37:37.824Z,4.13
2017-11-08T09:40:07.056Z,5.43
2017-11-08T09:42:36.171Z,5.27
2017-11-08T09:45:04.648Z,5.13
2017-11-08T09:47:33.148Z,5.60
2017-11-08T09:50:01.663Z,5.47
2017-11-08T09:52:30.131Z,6.07
2017-11-08T09:54:58.600Z,5.93
2017-11-08T09:57:27.066Z,5.93
2017-11-08T09:59:55.756Z,6.00
2017-11-08T10:02:24.235Z,5.57
2017-11-08T10:04:52.739Z,5.57
2017-11-08T10:07:21.220Z,5.60
2017-11-08T10:09:52.424Z,6.10
2017-11-08T10:12:21.078Z,4.90
2017-11-08T10:14:49.549Z,4.50
2017-11-08T10:17:17.820Z,4.70
2017-11-08T10:19:46.349Z,3.93
2017-11-08T10:22:15.792Z,4.10
2017-11-08T10:24:44.279Z,3.00
2017-11-08T10:27:12.441Z,4.10
2017-11-08T10:29:41.182Z,3.60
2017-11-08T10:32:10.447Z,2.87
2017-11-08T10:34:38.923Z,2.87
2017-11-08T10:37:07.524Z,2.50
2017-11-08T10:39:35.979Z,2.67
2017-11-08T10:42:04.414Z,2.77
2017-11-08T10:44:32.886Z,2.50
2017-11-08T10:47:01.545Z,2.33
2017-11-08T10:49:35.052Z,2.63
2017-11-08T10:52:04.097Z,2.20
2017-11-08T10:54:32.384Z,2.07
2017-11-08T10:57:00.844Z,2.60
2017-11-08T10:59:28.667Z,2.30
2017-11-08T11:01:58.121Z,2.60
2017-11-08T11:04:26.265Z,2.40
2017-11-08T11:06:55.140Z,2.60
2017-11-08T11:09:23.881Z,1.87
2017-11-08T11:11:51.650Z,2.07
2017-11-08T11:14:19.791Z,2.17
2017-11-08T11:16:48.265Z,2.07
2017-11-08T11:19:20.638Z,1.90
2017-11-08T11:21:48.669Z,2.10
2017-11-08T11:24:16.474Z,1.90
2017-11-08T11:26:45.069Z,2.27
2017-11-08T11:29:13.615Z,2.10
2017-11-08T11:31:42.090Z,2.23
2017-11-08T11:34:10.214Z,2.00
2017-11-08T11:36:39.448Z,2.50
2017-11-08T11:39:07.584Z,2.80
2017-11-08T11:41:36.824Z,2.20
2017-11-08T11:44:05.845Z,2.10
2017-11-08T11:46:40.848Z,2.73
2017-11-08T11:49:11.507Z,2.60
2017-11-08T11:51:39.266Z,2.60
2017-11-08T11:54:07.044Z,2.50
2017-11-08T11:56:34.834Z,2.03
2017-11-08T11:59:02.608Z,2.43
2017-11-08T12:01:31.264Z,2.67
2017-11-08T12:03:59.041Z,2.83
2017-11-08T12:06:26.852Z,2.20
2017-11-08T12:08:54.443Z,2.63
2017-11-08T12:11:22.575Z,2.23
2017-11-08T12:13:51.445Z,2.20
2017-11-08T12:16:19.226Z,2.67
2017-11-08T12:18:48.105Z,3.10
2017-11-08T12:21:16.493Z,3.13
2017-11-08T12:23:44.633Z,2.60
2017-11-08T12:26:12.413Z,2.57
2017-11-08T12:28:45.343Z,2.87
2017-11-08T12:31:13.902Z,3.00
2017-11-08T12:33:42.518Z,2.60
2017-11-08T12:36:10.650Z,3.30
2017-11-08T12:38:38.764Z,3.10
2017-11-08T12:41:06.612Z,3.27
2017-11-08T12:43:35.509Z,3.07
2017-11-08T12:46:04.444Z,3.37
2017-11-08T12:48:32.224Z,2.80
2017-11-08T12:51:00.339Z,2.90
2017-11-08T12:53:28.885Z,2.87
2017-11-08T12:55:57.157Z,2.87
2017-11-08T12:58:25.278Z,2.93
2017-11-08T13:00:54.157Z,4.00
2017-11-08T13:03:22.280Z,3.60
2017-11-08T13:06:05.153Z,3.33
2017-11-08T13:08:32.953Z,3.50
2017-11-08T13:11:06.013Z,3.47
2017-11-08T13:13:35.042Z,4.37
2017-11-08T13:16:03.847Z,3.60
2017-11-08T13:18:31.997Z,3.63
2017-11-08T13:21:00.885Z,4.03
2017-11-08T13:23:29.801Z,3.90
2017-11-08T13:25:58.088Z,3.40
2017-11-08T13:28:26.288Z,3.43
2017-11-08T13:30:54.089Z,3.10
2017-11-08T13:33:22.956Z,3.70
2017-11-08T13:35:50.745Z,4.07
2017-11-08T13:38:19.616Z,3.70
2017-11-08T13:40:47.807Z,5.33
2017-11-08T13:43:15.589Z,5.67
2017-11-08T13:45:44.296Z,6.47
2017-11-08T13:48:12.789Z,5.97
2017-11-08T13:50:41.487Z,6.53
2017-11-08T13:53:10.064Z,6.70
2017-11-08T13:55:38.191Z,7.40
2017-11-08T13:58:05.964Z,7.00
2017-11-08T14:00:34.511Z,8.27
2017-11-08T14:03:03.132Z,7.83
2017-11-08T14:05:31.332Z,7.77
2017-11-08T14:08:00.226Z,7.87
2017-11-08T14:10:28.701Z,8.10
2017-11-08T14:12:57.429Z,8.50
2017-11-08T14:15:25.902Z,7.50
2017-11-08T14:17:54.352Z,7.77
2017-11-08T14:20:23.602Z,8.43
2017-11-08T14:22:52.073Z,7.90
2017-11-08T14:25:20.582Z,8.17
2017-11-08T14:27:50.553Z,6.20
2017-11-08T14:30:19.032Z,6.30
2017-11-08T14:32:48.467Z,7.47
2017-11-08T14:35:16.967Z,7.77
2017-11-08T14:37:45.429Z,7.10
2017-11-08T14:40:14.022Z,6.87
2017-11-08T14:42:42.601Z,7.80
2017-11-08T14:45:11.080Z,6.40
2017-11-08T14:47:39.617Z,7.00
2017-11-08T14:50:08.868Z,6.30
2017-11-08T14:52:37.345Z,6.57
2017-11-08T14:55:06.778Z,7.30
2017-11-08T14:57:35.381Z,7.80
2017-11-08T15:00:03.505Z,7.40
2017-11-08T15:02:32.005Z,7.53
2017-11-08T15:05:00.595Z,7.97
2017-11-08T15:07:29.053Z,6.87
2017-11-08T15:09:57.539Z,6.80
2017-11-08T15:12:31.572Z,6.80
2017-11-08T15:15:02.918Z,7.33
2017-11-08T15:17:31.421Z,8.47
2017-11-08T15:20:00.136Z,7.97
2017-11-08T15:22:29.424Z,8.47
2017-11-08T15:24:58.785Z,8.63
2017-11-08T15:27:27.289Z,7.43
2017-11-08T15:29:59.752Z,7.53
2017-11-08T15:32:28.272Z,7.43
2017-11-08T15:34:57.520Z,7.60
2017-11-08T15:37:26.065Z,7.30
2017-11-08T15:40:01.892Z,7.77
2017-11-08T15:42:30.368Z,7.60
2017-11-08T15:44:58.851Z,8.10
2017-11-08T15:47:27.313Z,8.30
2017-11-08T15:49:55.813Z,10.10
2017-11-08T15:52:25.321Z,10.43
2017-11-08T15:54:53.791Z,8.53
2017-11-08T15:57:22.264Z,8.90
2017-11-08T15:59:50.744Z,8.80
2017-11-08T16:02:19.235Z,9.40
2017-11-08T16:04:47.840Z,9.33
2017-11-08T16:07:16.331Z,9.83
2017-11-08T16:09:44.809Z,9.70
2017-11-08T16:12:13.289Z,9.20
2017-11-08T16:14:41.876Z,9.17
2017-11-08T16:17:12.283Z,9.07
2017-11-08T16:19:40.745Z,7.97
2017-11-08T16:22:09.228Z,9.27
2017-11-08T16:24:37.725Z,9.50
2017-11-08T16:27:06.184Z,8.47
2017-11-08T16:29:34.683Z,8.50
2017-11-08T16:32:05.115Z,8.77
2017-11-08T16:34:33.644Z,10.20
2017-11-08T16:37:02.236Z,8.50
2017-11-08T16:39:31.491Z,9.17
2017-11-08T16:42:00.080Z,10.80
2017-11-08T16:44:28.656Z,10.13
2017-11-08T16:46:57.145Z,10.60
2017-11-08T16:49:25.635Z,12.37
2017-11-08T16:51:54.123Z,10.93
2017-11-08T16:54:22.612Z,12.27
2017-11-08T16:56:51.119Z,11.37
2017-11-08T16:59:20.364Z,11.63
2017-11-08T17:01:48.911Z,12.67
2017-11-08T17:04:18.186Z,10.60
2017-11-08T17:06:46.681Z,10.23
2017-11-08T17:09:15.164Z,10.30
2017-11-08T17:11:43.659Z,11.27
2017-11-08T17:14:12.892Z,9.83
2017-11-08T17:16:41.645Z,8.57
2017-11-08T17:19:10.885Z,9.13
2017-11-08T17:21:39.369Z,8.93
2017-11-08T17:24:07.868Z,8.90
2017-11-08T17:26:36.335Z,9.13
2017-11-08T17:29:04.336Z,8.73
2017-11-08T17:31:33.033Z,8.97
2017-11-08T17:34:01.646Z,9.57
2017-11-08T17:36:30.240Z,8.70
2017-11-08T17:39:00.261Z,9.80
2017-11-08T17:41:28.748Z,10.03
2017-11-08T17:43:57.374Z,10.00
2017-11-08T17:46:25.869Z,10.03
2017-11-08T17:48:55.372Z,10.23
2017-11-08T17:51:23.856Z,9.77
2017-11-08T17:53:52.330Z,9.77
2017-11-08T17:56:20.836Z,8.63
2017-11-08T17:58:49.308Z,9.70
2017-11-08T18:01:17.959Z,11.33
2017-11-08T18:03:46.449Z,10.50
2017-11-08T18:06:14.985Z,10.27
2017-11-08T18:08:44.267Z,10.90
2017-11-08T18:11:12.761Z,10.93
2017-11-08T18:13:42.023Z,10.13
2017-11-08T18:16:10.515Z,11.13
2017-11-08T18:18:39.023Z,11.43
2017-11-08T18:21:08.296Z,10.43
2017-11-08T18:23:36.777Z,10.87
2017-11-08T18:26:05.300Z,11.53
2017-11-08T18:28:34.558Z,11.50
2017-11-08T18:31:03.044Z,10.70
2017-11-08T18:33:31.540Z,11.70
2017-11-08T18:36:00.054Z,11.60
2017-11-08T18:38:29.500Z,10.00
2017-11-08T18:40:58.001Z,10.63
2017-11-08T18:43:26.538Z,11.47
2017-11-08T18:45:55.767Z,10.90
2017-11-08T18:48:24.259Z,11.10
2017-11-08T18:50:52.740Z,10.47
2017-11-08T18:53:21.359Z,9.23
2017-11-08T18:55:49.856Z,10.53
2017-11-08T18:58:19.181Z,10.83
2017-11-08T19:00:47.667Z,11.10
2017-11-08T19:03:16.171Z,10.00
2017-11-08T19:05:44.750Z,10.70
2017-11-08T19:08:13.224Z,10.50
2017-11-08T19:10:41.711Z,9.70
2017-11-08T19:13:10.190Z,11.20
2017-11-08T19:15:38.736Z,10.70
2017-11-08T19:18:07.980Z,10.10
2017-11-08T19:20:36.444Z,10.97
2017-11-08T19:23:04.953Z,10.77
2017-11-08T19:25:33.440Z,10.70
2017-11-08T19:28:01.939Z,10.87
2017-11-08T19:30:31.252Z,10.70
2017-11-08T19:32:59.745Z,11.60
2017-11-08T19:35:28.653Z,10.70
2017-11-08T19:37:57.770Z,10.20
2017-11-08T19:40:26.077Z,10.53
2017-11-08T19:42:55.252Z,11.90
2017-11-08T19:45:23.601Z,11.50
2017-11-08T19:47:52.691Z,10.27
2017-11-08T19:50:21.954Z,10.67
2017-11-08T19:52:50.457Z,11.93
2017-11-08T19:55:18.953Z,13.53
2017-11-08T19:57:48.369Z,11.97
2017-11-08T20:00:17.620Z,9.50
2017-11-08T20:02:46.100Z,10.37
2017-11-08T20:05:14.605Z,10.57
2017-11-08T20:07:43.096Z,10.47
2017-11-08T20:10:11.588Z,9.47
2017-11-08T20:12:40.115Z,10.67
2017-11-08T20:15:08.589Z,10.00
2017-11-08T20:17:37.078Z,9.83
2017-11-08T20:20:05.562Z,10.40
2017-11-08T20:22:34.017Z,10.17
2017-11-08T20:25:02.518Z,8.80
2017-11-08T20:27:31.017Z,10.97
2017-11-08T20:29:59.505Z,9.90
2017-11-08T20:32:28.013Z,10.30
2017-11-08T20:34:56.592Z,9.70
2017-11-08T20:37:25.110Z,10.37
2017-11-08T20:39:54.417Z,9.83
2017-11-08T20:42:23.689Z,10.10
2017-11-08T20:44:52.173Z,8.97
2017-11-08T20:47:20.652Z,10.93
2017-11-08T20:49:49.133Z,11.47
2017-11-08T20:52:17.614Z,10.57
2017-11-08T20:54:46.110Z,10.37
2017-11-08T20:57:15.584Z,10.70
2017-11-08T20:59:44.115Z,9.97
2017-11-08T21:02:13.385Z,10.73
2017-11-08T21:04:41.893Z,12.10
2017-11-08T21:07:11.345Z,11.57
2017-11-08T21:09:39.858Z,11.27
2017-11-08T21:12:08.347Z,10.73
2017-11-08T21:14:36.920Z,10.20
2017-11-08T21:17:05.428Z,11.43
2017-11-08T21:19:34.725Z,11.03
2017-11-08T21:22:03.205Z,12.03
2017-11-08T21:24:31.728Z,11.77
2017-11-08T21:27:00.241Z,11.53
2017-11-08T21:29:29.586Z,12.23
2017-11-08T21:31:58.861Z,11.63
2017-11-08T21:34:27.329Z,11.87
2017-11-08T21:36:55.837Z,10.90
2017-11-08T21:39:24.340Z,12.50
2017-11-08T21:41:53.620Z,10.30
2017-11-08T21:44:22.109Z,11.33
2017-11-08T21:46:50.715Z,11.90
2017-11-08T21:49:19.953Z,11.07
2017-11-08T21:51:48.449Z,12.83
2017-11-08T21:54:16.968Z,12.33
2017-11-08T21:56:46.228Z,11.43
2017-11-08T21:59:14.725Z,11.57
2017-11-08T22:01:43.213Z,12.57
2017-11-08T22:04:11.700Z,12.13
2017-11-08T22:06:40.190Z,12.60
2017-11-08T22:09:08.663Z,12.40
2017-11-08T22:11:37.148Z,12.10
2017-11-08T22:14:05.646Z,12.67
2017-11-08T22:16:33.844Z,10.83
2017-11-08T22:19:02.421Z,11.80
2017-11-08T22:21:31.684Z,11.40
2017-11-08T22:24:00.148Z,11.80
2017-11-08T22:26:28.652Z,11.60
2017-11-08T22:28:57.127Z,12.60
2017-11-08T22:31:25.619Z,11.97
2017-11-08T22:33:54.103Z,11.87
2017-11-08T22:36:22.608Z,14.07
2017-11-08T22:38:51.869Z,11.83
2017-11-08T22:41:19.638Z,11.90
2017-11-08T22:43:47.780Z,12.30
2017-11-08T22:46:15.942Z,10.90
2017-11-08T22:48:44.453Z,12.57
2017-11-08T22:51:12.933Z,11.30
2017-11-08T22:53:41.427Z,11.27
2017-11-08T22:56:09.901Z,12.43
2017-11-08T22:58:38.397Z,11.57
2017-11-08T23:01:06.870Z,11.30
2017-11-08T23:03:35.500Z,10.90
2017-11-08T23:06:03.970Z,12.70
2017-11-08T23:08:32.444Z,11.90
2017-11-08T23:11:00.930Z,11.93
2017-11-08T23:13:29.436Z,12.70
2017-11-08T23:15:58.678Z,12.30
2017-11-08T23:18:27.228Z,11.17
2017-11-08T23:20:56.433Z,11.77
2017-11-08T23:23:24.923Z,11.83
2017-11-08T23:25:54.313Z,11.87
2017-11-08T23:28:23.545Z,12.00
2017-11-08T23:30:52.033Z,11.63
2017-11-08T23:33:20.617Z,9.97
2017-11-08T23:35:48.920Z,10.23
2017-11-08T23:38:17.677Z,11.50
2017-11-08T23:40:45.979Z,11.00
2017-11-08T23:43:14.444Z,11.00
2017-11-08T23:45:42.958Z,10.40
2017-11-08T23:48:11.428Z,11.70
2017-11-08T23:50:39.891Z,11.30
2017-11-08T23:53:11.187Z,11.00
2017-11-08T23:55:39.652Z,11.60
2017-11-08T23:58:08.132Z,11.57
